Terminal Aerodrome Forecast
Issued by NWS

Home | Current Version | Previous Version | Text Only | Print | Product List | Glossary On
Versions: 1 2 3 4 5 6 7 8 9 10 11 12 13 14 15 16
000
FTUS45 KABQ 221741
TAFAEG
TAF
KAEG 221741Z 2218/2318 03006KT P6SM FEW050
     FM222100 13009KT P6SM SCT080
     FM230100 12012G20KT P6SM VCTS BKN070CB
     FM230700 04008KT P6SM SCT070=

USA.gov is the U.S. government's official web portal to all federal, state and local government web resources and services.